sensor_id;sensor_type;location;lat;lon;timestamp;pressure;altitude;pressure_sealevel;temperature;humidity
17311;BME280;8773;43.300;0.394;2023-04-22T00:00:40;98677.13;;;16.82;nan
17311;BME280;8773;43.300;0.394;2023-04-22T00:03:09;98675.41;;;16.88;nan
17311;BME280;8773;43.300;0.394;2023-04-22T00:05:37;98685.53;;;16.92;nan
17311;BME280;8773;43.300;0.394;2023-04-22T00:08:05;98691.34;;;16.89;nan
17311;BME280;8773;43.300;0.394;2023-04-22T00:10:33;98695.81;;;16.52;nan
17311;BME280;8773;43.300;0.394;2023-04-22T00:13:02;98695.63;;;16.47;nan
17311;BME280;8773;43.300;0.394;2023-04-22T00:15:30;98701.44;;;16.19;nan
17311;BME280;8773;43.300;0.394;2023-04-22T00:17:58;98707.69;;;16.13;nan
17311;BME280;8773;43.300;0.394;2023-04-22T00:20:26;98705.03;;;16.38;nan
17311;BME280;8773;43.300;0.394;2023-04-22T00:22:54;98704.34;;;16.18;nan
17311;BME280;8773;43.300;0.394;2023-04-22T00:25:22;98706.41;;;16.22;nan
17311;BME280;8773;43.300;0.394;2023-04-22T00:27:50;98715.84;;;16.00;nan
17311;BME280;8773;43.300;0.394;2023-04-22T00:30:20;98721.41;;;16.05;nan
17311;BME280;8773;43.300;0.394;2023-04-22T00:32:48;98721.78;;;16.15;nan
17311;BME280;8773;43.300;0.394;2023-04-22T00:35:16;98740.50;;;15.97;nan
17311;BME280;8773;43.300;0.394;2023-04-22T00:37:44;98741.22;;;15.86;nan
17311;BME280;8773;43.300;0.394;2023-04-22T00:40:12;98742.56;;;16.01;nan
17311;BME280;8773;43.300;0.394;2023-04-22T00:42:42;98746.47;;;16.05;nan
17311;BME280;8773;43.300;0.394;2023-04-22T00:45:11;98750.53;;;15.83;nan
17311;BME280;8773;43.300;0.394;2023-04-22T00:47:43;98758.84;;;15.68;nan
17311;BME280;8773;43.300;0.394;2023-04-22T00:50:11;98751.41;;;15.64;nan
17311;BME280;8773;43.300;0.394;2023-04-22T00:52:39;98754.22;;;15.18;nan
17311;BME280;8773;43.300;0.394;2023-04-22T00:55:08;98761.44;;;15.11;nan
17311;BME280;8773;43.300;0.394;2023-04-22T00:57:37;98750.28;;;15.00;nan
17311;BME280;8773;43.300;0.394;2023-04-22T01:00:06;98752.41;;;14.85;nan
17311;BME280;8773;43.300;0.394;2023-04-22T01:02:38;98747.22;;;14.97;nan
17311;BME280;8773;43.300;0.394;2023-04-22T01:05:08;98751.31;;;15.26;nan
17311;BME280;8773;43.300;0.394;2023-04-22T01:07:36;98739.94;;;15.11;nan
17311;BME280;8773;43.300;0.394;2023-04-22T01:10:06;98743.28;;;14.93;nan
17311;BME280;8773;43.300;0.394;2023-04-22T01:12:34;98751.53;;;15.04;nan
17311;BME280;8773;43.300;0.394;2023-04-22T01:15:02;98754.25;;;14.91;nan
17311;BME280;8773;43.300;0.394;2023-04-22T01:17:33;98753.44;;;14.91;nan
17311;BME280;8773;43.300;0.394;2023-04-22T01:20:05;98748.66;;;14.86;nan
17311;BME280;8773;43.300;0.394;2023-04-22T01:22:40;98747.00;;;14.79;nan
17311;BME280;8773;43.300;0.394;2023-04-22T01:25:10;98753.63;;;14.96;nan
17311;BME280;8773;43.300;0.394;2023-04-22T01:27:39;98762.06;;;15.06;nan
17311;BME280;8773;43.300;0.394;2023-04-22T01:30:09;98769.94;;;15.08;nan
17311;BME280;8773;43.300;0.394;2023-04-22T01:32:40;98769.31;;;15.12;nan
17311;BME280;8773;43.300;0.394;2023-04-22T01:35:09;98768.47;;;15.18;nan
17311;BME280;8773;43.300;0.394;2023-04-22T01:37:37;98759.38;;;15.06;nan
17311;BME280;8773;43.300;0.394;2023-04-22T01:40:10;98769.09;;;15.00;nan
17311;BME280;8773;43.300;0.394;2023-04-22T01:42:39;98769.31;;;15.05;nan
17311;BME280;8773;43.300;0.394;2023-04-22T01:45:08;98767.50;;;14.99;nan
17311;BME280;8773;43.300;0.394;2023-04-22T01:47:36;98762.50;;;14.77;nan
17311;BME280;8773;43.300;0.394;2023-04-22T01:50:05;98754.88;;;14.93;nan
17311;BME280;8773;43.300;0.394;2023-04-22T01:52:34;98750.91;;;15.02;nan
17311;BME280;8773;43.300;0.394;2023-04-22T01:55:02;98765.19;;;15.10;nan
17311;BME280;8773;43.300;0.394;2023-04-22T01:57:31;98777.16;;;15.00;nan
17311;BME280;8773;43.300;0.394;2023-04-22T01:59:59;98774.47;;;15.27;nan
17311;BME280;8773;43.300;0.394;2023-04-22T02:02:27;98765.19;;;15.10;nan
17311;BME280;8773;43.300;0.394;2023-04-22T02:04:56;98765.41;;;14.75;nan
17311;BME280;8773;43.300;0.394;2023-04-22T02:07:24;98771.41;;;14.77;nan
17311;BME280;8773;43.300;0.394;2023-04-22T02:09:52;98784.63;;;14.85;nan
17311;BME280;8773;43.300;0.394;2023-04-22T02:12:20;98781.28;;;14.70;nan
17311;BME280;8773;43.300;0.394;2023-04-22T02:14:49;98793.75;;;14.97;nan
17311;BME280;8773;43.300;0.394;2023-04-22T02:17:17;98804.06;;;15.07;nan
17311;BME280;8773;43.300;0.394;2023-04-22T02:19:45;98810.06;;;15.02;nan
17311;BME280;8773;43.300;0.394;2023-04-22T02:22:13;98815.22;;;15.11;nan
17311;BME280;8773;43.300;0.394;2023-04-22T02:24:41;98820.59;;;15.11;nan
17311;BME280;8773;43.300;0.394;2023-04-22T02:27:09;98813.38;;;15.24;nan
17311;BME280;8773;43.300;0.394;2023-04-22T02:29:37;98808.19;;;15.03;nan
17311;BME280;8773;43.300;0.394;2023-04-22T02:32:07;98801.16;;;15.22;nan
17311;BME280;8773;43.300;0.394;2023-04-22T02:34:35;98809.03;;;15.23;nan
17311;BME280;8773;43.300;0.394;2023-04-22T02:37:03;98813.16;;;15.39;nan
17311;BME280;8773;43.300;0.394;2023-04-22T02:39:31;98815.59;;;15.47;nan
17311;BME280;8773;43.300;0.394;2023-04-22T02:41:59;98804.59;;;15.62;nan
17311;BME280;8773;43.300;0.394;2023-04-22T02:44:27;98805.06;;;15.39;nan
17311;BME280;8773;43.300;0.394;2023-04-22T02:46:55;98810.22;;;15.47;nan
17311;BME280;8773;43.300;0.394;2023-04-22T02:49:25;98820.94;;;15.60;nan
17311;BME280;8773;43.300;0.394;2023-04-22T02:51:53;98822.56;;;15.75;nan
17311;BME280;8773;43.300;0.394;2023-04-22T02:54:21;98820.72;;;15.68;nan
17311;BME280;8773;43.300;0.394;2023-04-22T02:56:49;98816.78;;;15.71;nan
17311;BME280;8773;43.300;0.394;2023-04-22T02:59:17;98826.19;;;15.42;nan
17311;BME280;8773;43.300;0.394;2023-04-22T03:01:45;98827.56;;;15.64;nan
17311;BME280;8773;43.300;0.394;2023-04-22T03:04:13;98831.91;;;15.72;nan
17311;BME280;8773;43.300;0.394;2023-04-22T03:06:43;98828.22;;;15.53;nan
17311;BME280;8773;43.300;0.394;2023-04-22T03:09:11;98830.88;;;15.66;nan
17311;BME280;8773;43.300;0.394;2023-04-22T03:11:39;98827.56;;;15.71;nan
17311;BME280;8773;43.300;0.394;2023-04-22T03:14:07;98834.19;;;15.62;nan
17311;BME280;8773;43.300;0.394;2023-04-22T03:16:35;98840.81;;;15.66;nan
17311;BME280;8773;43.300;0.394;2023-04-22T03:19:03;98843.72;;;15.64;nan
17311;BME280;8773;43.300;0.394;2023-04-22T03:21:31;98838.75;;;15.61;nan
17311;BME280;8773;43.300;0.394;2023-04-22T03:24:01;98840.41;;;15.76;nan
17311;BME280;8773;43.300;0.394;2023-04-22T03:26:29;98842.00;;;15.90;nan
17311;BME280;8773;43.300;0.394;2023-04-22T03:28:57;98842.84;;;15.90;nan
17311;BME280;8773;43.300;0.394;2023-04-22T03:31:25;98851.09;;;15.95;nan
17311;BME280;8773;43.300;0.394;2023-04-22T03:33:53;98859.56;;;16.05;nan
17311;BME280;8773;43.300;0.394;2023-04-22T03:36:21;98855.63;;;16.08;nan
17311;BME280;8773;43.300;0.394;2023-04-22T03:38:49;98856.56;;;15.62;nan
17311;BME280;8773;43.300;0.394;2023-04-22T03:41:19;98860.06;;;15.56;nan
17311;BME280;8773;43.300;0.394;2023-04-22T03:43:47;98869.38;;;15.73;nan
17311;BME280;8773;43.300;0.394;2023-04-22T03:46:15;98871.03;;;15.75;nan
17311;BME280;8773;43.300;0.394;2023-04-22T03:48:43;98865.19;;;15.91;nan
17311;BME280;8773;43.300;0.394;2023-04-22T03:51:11;98872.47;;;15.70;nan
17311;BME280;8773;43.300;0.394;2023-04-22T03:53:39;98875.59;;;15.81;nan
17311;BME280;8773;43.300;0.394;2023-04-22T03:56:07;98861.47;;;15.92;nan
17311;BME280;8773;43.300;0.394;2023-04-22T03:58:36;98863.97;;;15.87;nan
17311;BME280;8773;43.300;0.394;2023-04-22T04:01:04;98870.59;;;15.91;nan
17311;BME280;8773;43.300;0.394;2023-04-22T04:03:33;98873.94;;;15.80;nan
17311;BME280;8773;43.300;0.394;2023-04-22T04:06:02;98871.47;;;15.45;nan
17311;BME280;8773;43.300;0.394;2023-04-22T04:08:30;98866.31;;;15.37;nan
17311;BME280;8773;43.300;0.394;2023-04-22T04:10:58;98868.56;;;15.07;nan
17311;BME280;8773;43.300;0.394;2023-04-22T04:13:26;98879.75;;;15.24;nan
17311;BME280;8773;43.300;0.394;2023-04-22T04:15:59;98874.38;;;15.24;nan
17311;BME280;8773;43.300;0.394;2023-04-22T04:18:27;98881.00;;;15.08;nan
17311;BME280;8773;43.300;0.394;2023-04-22T04:20:56;98884.72;;;14.87;nan
17311;BME280;8773;43.300;0.394;2023-04-22T04:23:24;98886.97;;;15.03;nan
17311;BME280;8773;43.300;0.394;2023-04-22T04:25:52;98888.66;;;15.11;nan
17311;BME280;8773;43.300;0.394;2023-04-22T04:28:21;98883.25;;;14.78;nan
17311;BME280;8773;43.300;0.394;2023-04-22T04:30:49;98895.03;;;14.84;nan
17311;BME280;8773;43.300;0.394;2023-04-22T04:33:20;98903.50;;;14.81;nan
17311;BME280;8773;43.300;0.394;2023-04-22T04:35:51;98917.38;;;14.91;nan
17311;BME280;8773;43.300;0.394;2023-04-22T04:38:19;98925.25;;;14.92;nan
17311;BME280;8773;43.300;0.394;2023-04-22T04:40:49;98933.09;;;14.87;nan
17311;BME280;8773;43.300;0.394;2023-04-22T04:43:17;98943.22;;;14.85;nan
17311;BME280;8773;43.300;0.394;2023-04-22T04:45:45;98950.47;;;14.91;nan
17311;BME280;8773;43.300;0.394;2023-04-22T04:48:15;98941.97;;;14.88;nan
17311;BME280;8773;43.300;0.394;2023-04-22T04:50:46;98952.94;;;14.86;nan
17311;BME280;8773;43.300;0.394;2023-04-22T04:53:15;98954.81;;;15.05;nan
17311;BME280;8773;43.300;0.394;2023-04-22T04:55:43;98955.03;;;15.11;nan
17311;BME280;8773;43.300;0.394;2023-04-22T04:58:11;98966.22;;;15.21;nan
17311;BME280;8773;43.300;0.394;2023-04-22T05:00:42;98956.19;;;14.75;nan
17311;BME280;8773;43.300;0.394;2023-04-22T05:03:10;98970.13;;;14.57;nan
17311;BME280;8773;43.300;0.394;2023-04-22T05:05:41;98975.94;;;14.61;nan
17311;BME280;8773;43.300;0.394;2023-04-22T05:08:13;98975.94;;;14.61;nan
17311;BME280;8773;43.300;0.394;2023-04-22T05:10:41;98976.56;;;14.63;nan
17311;BME280;8773;43.300;0.394;2023-04-22T05:13:10;98981.00;;;14.77;nan
17311;BME280;8773;43.300;0.394;2023-04-22T05:15:38;98984.03;;;14.67;nan
17311;BME280;8773;43.300;0.394;2023-04-22T05:18:08;98979.38;;;14.83;nan
17311;BME280;8773;43.300;0.394;2023-04-22T05:20:37;98974.94;;;14.68;nan
17311;BME280;8773;43.300;0.394;2023-04-22T05:23:05;98965.72;;;14.78;nan
17311;BME280;8773;43.300;0.394;2023-04-22T05:25:34;98958.41;;;14.71;nan
17311;BME280;8773;43.300;0.394;2023-04-22T05:28:02;98951.38;;;14.64;nan
17311;BME280;8773;43.300;0.394;2023-04-22T05:30:30;98959.00;;;14.54;nan
17311;BME280;8773;43.300;0.394;2023-04-22T05:32:58;98991.50;;;14.72;nan
17311;BME280;8773;43.300;0.394;2023-04-22T05:35:29;99003.97;;;14.80;nan
17311;BME280;8773;43.300;0.394;2023-04-22T05:37:57;98996.16;;;14.91;nan
17311;BME280;8773;43.300;0.394;2023-04-22T05:40:25;98991.41;;;15.00;nan
17311;BME280;8773;43.300;0.394;2023-04-22T05:42:55;98986.22;;;14.85;nan
17311;BME280;8773;43.300;0.394;2023-04-22T05:45:23;98986.84;;;15.00;nan
17311;BME280;8773;43.300;0.394;2023-04-22T05:47:51;98983.94;;;14.89;nan
17311;BME280;8773;43.300;0.394;2023-04-22T05:50:19;98976.91;;;14.88;nan
17311;BME280;8773;43.300;0.394;2023-04-22T05:52:51;98981.88;;;14.84;nan
17311;BME280;8773;43.300;0.394;2023-04-22T05:55:20;98997.38;;;14.89;nan
17311;BME280;8773;43.300;0.394;2023-04-22T05:57:48;99008.13;;;14.89;nan
17311;BME280;8773;43.300;0.394;2023-04-22T06:00:18;99007.97;;;14.97;nan
17311;BME280;8773;43.300;0.394;2023-04-22T06:02:46;99022.66;;;15.08;nan
17311;BME280;8773;43.300;0.394;2023-04-22T06:05:14;99025.97;;;15.10;nan
17311;BME280;8773;43.300;0.394;2023-04-22T06:07:42;99034.84;;;15.03;nan
17311;BME280;8773;43.300;0.394;2023-04-22T06:10:10;99038.38;;;14.97;nan
17311;BME280;8773;43.300;0.394;2023-04-22T06:12:38;99032.97;;;15.04;nan
17311;BME280;8773;43.300;0.394;2023-04-22T06:15:07;99033.81;;;14.98;nan
17311;BME280;8773;43.300;0.394;2023-04-22T06:17:36;99023.06;;;15.04;nan
17311;BME280;8773;43.300;0.394;2023-04-22T06:20:06;99021.66;;;15.22;nan
17311;BME280;8773;43.300;0.394;2023-04-22T06:22:34;99027.03;;;15.15;nan
17311;BME280;8773;43.300;0.394;2023-04-22T06:25:03;99034.31;;;15.48;nan
17311;BME280;8773;43.300;0.394;2023-04-22T06:27:31;99028.97;;;15.67;nan
17311;BME280;8773;43.300;0.394;2023-04-22T06:29:59;99031.31;;;15.77;nan
17311;BME280;8773;43.300;0.394;2023-04-22T06:32:27;99039.78;;;15.94;nan
17311;BME280;8773;43.300;0.394;2023-04-22T06:34:56;99060.47;;;15.87;nan
17311;BME280;8773;43.300;0.394;2023-04-22T06:37:24;99077.25;;;15.89;nan
17311;BME280;8773;43.300;0.394;2023-04-22T06:39:52;99068.78;;;15.92;nan
17311;BME280;8773;43.300;0.394;2023-04-22T06:42:23;99070.81;;;15.70;nan
17311;BME280;8773;43.300;0.394;2023-04-22T06:44:54;99076.19;;;15.63;nan
17311;BME280;8773;43.300;0.394;2023-04-22T06:47:22;99072.22;;;15.59;nan
17311;BME280;8773;43.300;0.394;2023-04-22T06:49:50;99069.97;;;15.69;nan
17311;BME280;8773;43.300;0.394;2023-04-22T06:52:22;99072.09;;;15.81;nan
17311;BME280;8773;43.300;0.394;2023-04-22T06:54:49;99075.56;;;15.75;nan
17311;BME280;8773;43.300;0.394;2023-04-22T06:57:17;99083.47;;;15.76;nan
17311;BME280;8773;43.300;0.394;2023-04-22T06:59:45;99076.25;;;15.83;nan
17311;BME280;8773;43.300;0.394;2023-04-22T07:02:13;99074.78;;;15.94;nan
17311;BME280;8773;43.300;0.394;2023-04-22T07:04:44;99078.72;;;15.85;nan
17311;BME280;8773;43.300;0.394;2023-04-22T07:07:12;99085.53;;;15.94;nan
17311;BME280;8773;43.300;0.394;2023-04-22T07:09:42;99080.97;;;15.88;nan
17311;BME280;8773;43.300;0.394;2023-04-22T07:12:10;99092.19;;;15.85;nan
17311;BME280;8773;43.300;0.394;2023-04-22T07:14:41;99107.84;;;15.61;nan
17311;BME280;8773;43.300;0.394;2023-04-22T07:17:10;99114.97;;;15.82;nan
17311;BME280;8773;43.300;0.394;2023-04-22T07:19:38;99125.53;;;15.97;nan
17311;BME280;8773;43.300;0.394;2023-04-22T07:22:09;99134.22;;;15.99;nan
17311;BME280;8773;43.300;0.394;2023-04-22T07:24:37;99127.81;;;16.00;nan
17311;BME280;8773;43.300;0.394;2023-04-22T07:27:07;99130.72;;;16.12;nan
17311;BME280;8773;43.300;0.394;2023-04-22T07:29:36;99125.75;;;16.02;nan
17311;BME280;8773;43.300;0.394;2023-04-22T07:32:04;99126.97;;;15.93;nan
17311;BME280;8773;43.300;0.394;2023-04-22T07:34:32;99131.13;;;15.28;nan
17311;BME280;8773;43.300;0.394;2023-04-22T07:37:00;99139.94;;;15.09;nan
17311;BME280;8773;43.300;0.394;2023-04-22T07:39:28;99133.84;;;14.87;nan
17311;BME280;8773;43.300;0.394;2023-04-22T07:41:56;99130.72;;;14.83;nan
17311;BME280;8773;43.300;0.394;2023-04-22T07:44:25;99124.47;;;14.76;nan
17311;BME280;8773;43.300;0.394;2023-04-22T07:46:53;99132.38;;;14.84;nan
17311;BME280;8773;43.300;0.394;2023-04-22T07:49:21;99127.66;;;14.65;nan
17311;BME280;8773;43.300;0.394;2023-04-22T07:51:49;99137.06;;;14.48;nan
17311;BME280;8773;43.300;0.394;2023-04-22T07:54:18;99134.44;;;14.61;nan
17311;BME280;8773;43.300;0.394;2023-04-22T07:56:46;99141.78;;;14.73;nan
17311;BME280;8773;43.300;0.394;2023-04-22T07:59:13;99134.69;;;14.66;nan
17311;BME280;8773;43.300;0.394;2023-04-22T08:01:43;99147.75;;;14.97;nan
17311;BME280;8773;43.300;0.394;2023-04-22T08:04:12;99153.78;;;15.05;nan
17311;BME280;8773;43.300;0.394;2023-04-22T08:06:40;99152.97;;;15.12;nan
17311;BME280;8773;43.300;0.394;2023-04-22T08:09:08;99145.31;;;15.09;nan
17311;BME280;8773;43.300;0.394;2023-04-22T08:11:36;99140.16;;;15.14;nan
17311;BME280;8773;43.300;0.394;2023-04-22T08:14:04;99142.94;;;15.33;nan
17311;BME280;8773;43.300;0.394;2023-04-22T08:16:32;99146.03;;;15.30;nan
17311;BME280;8773;43.300;0.394;2023-04-22T08:19:02;99153.41;;;15.15;nan
17311;BME280;8773;43.300;0.394;2023-04-22T08:21:30;99155.88;;;14.76;nan
17311;BME280;8773;43.300;0.394;2023-04-22T08:23:58;99152.47;;;14.67;nan
17311;BME280;8773;43.300;0.394;2023-04-22T08:26:26;99150.38;;;14.34;nan
17311;BME280;8773;43.300;0.394;2023-04-22T08:28:54;99141.66;;;14.54;nan
17311;BME280;8773;43.300;0.394;2023-04-22T08:31:22;99139.63;;;14.62;nan
17311;BME280;8773;43.300;0.394;2023-04-22T08:33:51;99146.31;;;14.73;nan
17311;BME280;8773;43.300;0.394;2023-04-22T08:36:20;99151.19;;;14.84;nan
17311;BME280;8773;43.300;0.394;2023-04-22T08:38:49;99162.41;;;14.66;nan
17311;BME280;8773;43.300;0.394;2023-04-22T08:41:17;99162.91;;;14.49;nan
17311;BME280;8773;43.300;0.394;2023-04-22T08:43:46;99167.97;;;14.37;nan
17311;BME280;8773;43.300;0.394;2023-04-22T08:46:16;99167.06;;;14.79;nan
17311;BME280;8773;43.300;0.394;2023-04-22T08:48:46;99163.94;;;15.10;nan
17311;BME280;8773;43.300;0.394;2023-04-22T08:51:14;99163.91;;;15.03;nan
17311;BME280;8773;43.300;0.394;2023-04-22T08:53:44;99164.72;;;14.97;nan
17311;BME280;8773;43.300;0.394;2023-04-22T08:56:12;99172.19;;;15.09;nan
17311;BME280;8773;43.300;0.394;2023-04-22T08:58:41;99177.84;;;15.20;nan
17311;BME280;8773;43.300;0.394;2023-04-22T09:01:09;99184.72;;;15.29;nan
17311;BME280;8773;43.300;0.394;2023-04-22T09:03:38;99191.84;;;15.50;nan
17311;BME280;8773;43.300;0.394;2023-04-22T09:06:07;99192.16;;;15.27;nan
17311;BME280;8773;43.300;0.394;2023-04-22T09:08:37;99199.97;;;15.16;nan
17311;BME280;8773;43.300;0.394;2023-04-22T09:11:06;99206.28;;;15.36;nan
17311;BME280;8773;43.300;0.394;2023-04-22T09:13:35;99209.97;;;15.28;nan
17311;BME280;8773;43.300;0.394;2023-04-22T09:16:04;99204.03;;;15.46;nan
17311;BME280;8773;43.300;0.394;2023-04-22T09:18:39;99201.22;;;15.20;nan
17311;BME280;8773;43.300;0.394;2023-04-22T09:21:07;99198.78;;;15.25;nan
17311;BME280;8773;43.300;0.394;2023-04-22T09:23:44;99198.97;;;15.23;nan
17311;BME280;8773;43.300;0.394;2023-04-22T09:26:14;99196.53;;;15.00;nan
17311;BME280;8773;43.300;0.394;2023-04-22T09:28:48;99190.84;;;15.17;nan
17311;BME280;8773;43.300;0.394;2023-04-22T09:31:17;99186.22;;;15.04;nan
17311;BME280;8773;43.300;0.394;2023-04-22T09:33:49;99180.09;;;15.17;nan
17311;BME280;8773;43.300;0.394;2023-04-22T09:36:20;99188.19;;;14.82;nan
17311;BME280;8773;43.300;0.394;2023-04-22T09:38:53;99186.84;;;14.99;nan
17311;BME280;8773;43.300;0.394;2023-04-22T09:41:29;99187.94;;;15.12;nan
17311;BME280;8773;43.300;0.394;2023-04-22T09:43:59;99188.03;;;15.31;nan
17311;BME280;8773;43.300;0.394;2023-04-22T09:46:29;99195.19;;;15.59;nan
17311;BME280;8773;43.300;0.394;2023-04-22T09:48:58;99199.25;;;15.83;nan
17311;BME280;8773;43.300;0.394;2023-04-22T09:51:27;99206.72;;;16.00;nan
17311;BME280;8773;43.300;0.394;2023-04-22T09:53:57;99214.16;;;15.92;nan
17311;BME280;8773;43.300;0.394;2023-04-22T09:56:45;99212.75;;;16.09;nan
17311;BME280;8773;43.300;0.394;2023-04-22T09:59:18;99224.75;;;16.00;nan
17311;BME280;8773;43.300;0.394;2023-04-22T10:01:48;99231.56;;;15.96;nan
17311;BME280;8773;43.300;0.394;2023-04-22T10:04:16;99238.50;;;15.70;nan
17311;BME280;8773;43.300;0.394;2023-04-22T10:06:47;99238.75;;;15.34;nan
17311;BME280;8773;43.300;0.394;2023-04-22T10:09:17;99239.63;;;15.42;nan
17311;BME280;8773;43.300;0.394;2023-04-22T10:11:49;99239.84;;;15.47;nan
17311;BME280;8773;43.300;0.394;2023-04-22T10:14:17;99229.91;;;15.47;nan
17311;BME280;8773;43.300;0.394;2023-04-22T10:16:46;99233.47;;;15.54;nan
17311;BME280;8773;43.300;0.394;2023-04-22T10:19:19;99243.03;;;15.63;nan
17311;BME280;8773;43.300;0.394;2023-04-22T10:21:51;99240.47;;;15.83;nan
17311;BME280;8773;43.300;0.394;2023-04-22T10:24:21;99244.59;;;15.86;nan
17311;BME280;8773;43.300;0.394;2023-04-22T10:26:55;99237.97;;;15.88;nan
17311;BME280;8773;43.300;0.394;2023-04-22T10:29:25;99240.84;;;15.46;nan
17311;BME280;8773;43.300;0.394;2023-04-22T10:31:54;99239.69;;;15.61;nan
17311;BME280;8773;43.300;0.394;2023-04-22T10:34:24;99238.78;;;15.41;nan
17311;BME280;8773;43.300;0.394;2023-04-22T10:36:57;99247.38;;;15.64;nan
17311;BME280;8773;43.300;0.394;2023-04-22T10:39:26;99254.66;;;15.70;nan
17311;BME280;8773;43.300;0.394;2023-04-22T10:42:04;99266.94;;;15.80;nan
17311;BME280;8773;43.300;0.394;2023-04-22T10:44:48;99264.75;;;15.62;nan
17311;BME280;8773;43.300;0.394;2023-04-22T10:47:27;99271.84;;;15.69;nan
17311;BME280;8773;43.300;0.394;2023-04-22T10:50:12;99289.75;;;15.56;nan
17311;BME280;8773;43.300;0.394;2023-04-22T10:52:42;99287.03;;;15.49;nan
17311;BME280;8773;43.300;0.394;2023-04-22T10:55:10;99291.97;;;15.39;nan
17311;BME280;8773;43.300;0.394;2023-04-22T10:57:41;99299.47;;;15.50;nan
17311;BME280;8773;43.300;0.394;2023-04-22T11:00:31;99294.13;;;15.57;nan
17311;BME280;8773;43.300;0.394;2023-04-22T11:03:24;99289.00;;;15.27;nan
17311;BME280;8773;43.300;0.394;2023-04-22T11:06:12;99301.34;;;14.72;nan
17311;BME280;8773;43.300;0.394;2023-04-22T11:08:43;99295.72;;;14.67;nan
17311;BME280;8773;43.300;0.394;2023-04-22T11:11:16;99299.16;;;14.55;nan
17311;BME280;8773;43.300;0.394;2023-04-22T11:13:47;99290.44;;;14.74;nan
17311;BME280;8773;43.300;0.394;2023-04-22T11:16:20;99293.75;;;14.97;nan
17311;BME280;8773;43.300;0.394;2023-04-22T11:18:49;99293.13;;;15.02;nan
17311;BME280;8773;43.300;0.394;2023-04-22T11:21:17;99302.16;;;15.16;nan
17311;BME280;8773;43.300;0.394;2023-04-22T11:23:49;99298.59;;;15.43;nan
17311;BME280;8773;43.300;0.394;2023-04-22T11:26:18;99300.88;;;15.39;nan
17311;BME280;8773;43.300;0.394;2023-04-22T11:28:47;99304.91;;;15.63;nan
17311;BME280;8773;43.300;0.394;2023-04-22T11:31:15;99304.13;;;15.69;nan
17311;BME280;8773;43.300;0.394;2023-04-22T11:33:43;99314.06;;;15.69;nan
17311;BME280;8773;43.300;0.394;2023-04-22T11:36:14;99307.25;;;15.73;nan
17311;BME280;8773;43.300;0.394;2023-04-22T11:38:53;99314.03;;;15.62;nan
17311;BME280;8773;43.300;0.394;2023-04-22T11:41:21;99316.66;;;15.84;nan
17311;BME280;8773;43.300;0.394;2023-04-22T11:43:51;99324.09;;;15.82;nan
17311;BME280;8773;43.300;0.394;2023-04-22T11:46:27;99328.53;;;16.02;nan
17311;BME280;8773;43.300;0.394;2023-04-22T11:49:10;99330.28;;;16.23;nan
17311;BME280;8773;43.300;0.394;2023-04-22T11:51:51;99315.56;;;16.32;nan
17311;BME280;8773;43.300;0.394;2023-04-22T11:54:29;99322.66;;;16.47;nan
17311;BME280;8773;43.300;0.394;2023-04-22T11:57:00;99328.25;;;16.45;nan
17311;BME280;8773;43.300;0.394;2023-04-22T11:59:30;99318.88;;;16.34;nan
17311;BME280;8773;43.300;0.394;2023-04-22T12:01:58;99312.44;;;16.16;nan
17311;BME280;8773;43.300;0.394;2023-04-22T12:04:26;99323.44;;;16.27;nan
17311;BME280;8773;43.300;0.394;2023-04-22T12:06:54;99323.88;;;16.37;nan
17311;BME280;8773;43.300;0.394;2023-04-22T12:09:23;99326.66;;;16.03;nan
17311;BME280;8773;43.300;0.394;2023-04-22T12:11:51;99317.91;;;15.88;nan
17311;BME280;8773;43.300;0.394;2023-04-22T12:14:19;99326.41;;;15.91;nan
17311;BME280;8773;43.300;0.394;2023-04-22T12:16:49;99317.38;;;15.71;nan
17311;BME280;8773;43.300;0.394;2023-04-22T12:19:24;99314.66;;;15.30;nan
17311;BME280;8773;43.300;0.394;2023-04-22T12:21:54;99320.59;;;15.53;nan
17311;BME280;8773;43.300;0.394;2023-04-22T12:24:26;99329.50;;;15.54;nan
17311;BME280;8773;43.300;0.394;2023-04-22T12:26:55;99328.06;;;15.58;nan
17311;BME280;8773;43.300;0.394;2023-04-22T12:29:30;99322.13;;;16.03;nan
17311;BME280;8773;43.300;0.394;2023-04-22T12:32:00;99324.94;;;16.50;nan
17311;BME280;8773;43.300;0.394;2023-04-22T12:34:28;99325.22;;;16.88;nan
17311;BME280;8773;43.300;0.394;2023-04-22T12:36:58;99326.06;;;17.15;nan
17311;BME280;8773;43.300;0.394;2023-04-22T12:39:26;99337.25;;;17.18;nan
17311;BME280;8773;43.300;0.394;2023-04-22T12:41:54;99339.31;;;17.23;nan
17311;BME280;8773;43.300;0.394;2023-04-22T12:44:23;99337.47;;;17.03;nan
17311;BME280;8773;43.300;0.394;2023-04-22T12:46:51;99342.66;;;17.05;nan
17311;BME280;8773;43.300;0.394;2023-04-22T12:49:20;99338.09;;;17.25;nan
17311;BME280;8773;43.300;0.394;2023-04-22T12:51:48;99346.41;;;16.97;nan
17311;BME280;8773;43.300;0.394;2023-04-22T12:54:17;99345.16;;;17.00;nan
17311;BME280;8773;43.300;0.394;2023-04-22T12:56:46;99349.72;;;16.93;nan
17311;BME280;8773;43.300;0.394;2023-04-22T12:59:14;99348.91;;;17.06;nan
17311;BME280;8773;43.300;0.394;2023-04-22T13:01:42;99351.16;;;17.22;nan
17311;BME280;8773;43.300;0.394;2023-04-22T13:04:11;99355.72;;;17.28;nan
17311;BME280;8773;43.300;0.394;2023-04-22T13:06:40;99350.31;;;17.28;nan
17311;BME280;8773;43.300;0.394;2023-04-22T13:09:09;99349.06;;;17.17;nan
17311;BME280;8773;43.300;0.394;2023-04-22T13:11:38;99343.66;;;17.50;nan
17311;BME280;8773;43.300;0.394;2023-04-22T13:14:06;99339.53;;;17.28;nan
17311;BME280;8773;43.300;0.394;2023-04-22T13:16:37;99347.25;;;17.11;nan
17311;BME280;8773;43.300;0.394;2023-04-22T13:19:06;99346.38;;;17.24;nan
17311;BME280;8773;43.300;0.394;2023-04-22T13:21:34;99350.13;;;17.03;nan
17311;BME280;8773;43.300;0.394;2023-04-22T13:24:04;99362.06;;;16.54;nan
17311;BME280;8773;43.300;0.394;2023-04-22T13:26:32;99357.09;;;16.51;nan
17311;BME280;8773;43.300;0.394;2023-04-22T13:29:00;99365.72;;;16.33;nan
17311;BME280;8773;43.300;0.394;2023-04-22T13:31:28;99363.56;;;16.09;nan
17311;BME280;8773;43.300;0.394;2023-04-22T13:33:56;99365.53;;;16.28;nan
17311;BME280;8773;43.300;0.394;2023-04-22T13:36:24;99370.38;;;16.59;nan
17311;BME280;8773;43.300;0.394;2023-04-22T13:38:53;99376.63;;;16.66;nan
17311;BME280;8773;43.300;0.394;2023-04-22T13:41:23;99382.75;;;16.41;nan
17311;BME280;8773;43.300;0.394;2023-04-22T13:43:51;99385.78;;;16.72;nan